sensor_id;sensor_type;location;lat;lon;timestamp;P1;durP1;ratioP1;P2;durP2;ratioP2
17604;SDS011;8921;50.964;6.800;2023-05-10T00:00:11;10.10;;;8.03;;
17604;SDS011;8921;50.964;6.800;2023-05-10T00:02:39;10.90;;;7.70;;
17604;SDS011;8921;50.964;6.800;2023-05-10T00:05:08;12.30;;;8.27;;
17604;SDS011;8921;50.964;6.800;2023-05-10T00:07:36;12.47;;;8.60;;
17604;SDS011;8921;50.964;6.800;2023-05-10T00:10:04;12.90;;;9.43;;
17604;SDS011;8921;50.964;6.800;2023-05-10T00:12:32;15.60;;;9.50;;
17604;SDS011;8921;50.964;6.800;2023-05-10T00:15:01;13.07;;;8.27;;
17604;SDS011;8921;50.964;6.800;2023-05-10T00:17:29;13.50;;;8.83;;
17604;SDS011;8921;50.964;6.800;2023-05-10T00:19:57;11.90;;;8.27;;
17604;SDS011;8921;50.964;6.800;2023-05-10T00:22:25;13.80;;;9.43;;
17604;SDS011;8921;50.964;6.800;2023-05-10T00:24:54;16.27;;;10.00;;
17604;SDS011;8921;50.964;6.800;2023-05-10T00:27:22;14.23;;;9.07;;
17604;SDS011;8921;50.964;6.800;2023-05-10T00:29:50;15.00;;;10.20;;
17604;SDS011;8921;50.964;6.800;2023-05-10T00:32:18;16.67;;;9.07;;
17604;SDS011;8921;50.964;6.800;2023-05-10T00:34:47;16.30;;;10.70;;
17604;SDS011;8921;50.964;6.800;2023-05-10T00:37:15;14.43;;;10.13;;
17604;SDS011;8921;50.964;6.800;2023-05-10T00:39:43;16.43;;;10.67;;
17604;SDS011;8921;50.964;6.800;2023-05-10T00:42:12;14.53;;;9.73;;
17604;SDS011;8921;50.964;6.800;2023-05-10T00:44:40;17.50;;;10.23;;
17604;SDS011;8921;50.964;6.800;2023-05-10T00:47:08;15.63;;;10.47;;
17604;SDS011;8921;50.964;6.800;2023-05-10T00:49:36;15.97;;;10.77;;
17604;SDS011;8921;50.964;6.800;2023-05-10T00:52:05;18.33;;;11.20;;
17604;SDS011;8921;50.964;6.800;2023-05-10T00:54:33;13.93;;;10.43;;
17604;SDS011;8921;50.964;6.800;2023-05-10T00:57:01;16.10;;;11.03;;
17604;SDS011;8921;50.964;6.800;2023-05-10T00:59:29;16.37;;;10.30;;
17604;SDS011;8921;50.964;6.800;2023-05-10T01:01:58;18.23;;;10.80;;
17604;SDS011;8921;50.964;6.800;2023-05-10T01:04:26;14.80;;;9.37;;
17604;SDS011;8921;50.964;6.800;2023-05-10T01:06:54;15.90;;;9.03;;
17604;SDS011;8921;50.964;6.800;2023-05-10T01:09:22;16.43;;;9.93;;
17604;SDS011;8921;50.964;6.800;2023-05-10T01:11:51;15.60;;;10.07;;
17604;SDS011;8921;50.964;6.800;2023-05-10T01:14:19;14.90;;;9.50;;
17604;SDS011;8921;50.964;6.800;2023-05-10T01:16:48;16.90;;;9.90;;
17604;SDS011;8921;50.964;6.800;2023-05-10T01:19:19;14.60;;;11.23;;
17604;SDS011;8921;50.964;6.800;2023-05-10T01:21:51;16.97;;;10.07;;
17604;SDS011;8921;50.964;6.800;2023-05-10T01:24:22;13.77;;;8.70;;
17604;SDS011;8921;50.964;6.800;2023-05-10T01:26:55;19.00;;;11.70;;
17604;SDS011;8921;50.964;6.800;2023-05-10T01:35:10;16.10;;;11.10;;
17604;SDS011;8921;50.964;6.800;2023-05-10T01:40:32;20.90;;;11.30;;
17604;SDS011;8921;50.964;6.800;2023-05-10T01:43:02;19.17;;;11.50;;
17604;SDS011;8921;50.964;6.800;2023-05-10T01:45:33;15.63;;;10.40;;
17604;SDS011;8921;50.964;6.800;2023-05-10T01:48:07;23.03;;;11.50;;
17604;SDS011;8921;50.964;6.800;2023-05-10T01:50:35;20.70;;;10.90;;
17604;SDS011;8921;50.964;6.800;2023-05-10T01:53:02;19.37;;;12.17;;
17604;SDS011;8921;50.964;6.800;2023-05-10T01:55:32;17.57;;;11.77;;
17604;SDS011;8921;50.964;6.800;2023-05-10T01:58:03;17.17;;;11.37;;
17604;SDS011;8921;50.964;6.800;2023-05-10T02:00:30;24.37;;;12.33;;
17604;SDS011;8921;50.964;6.800;2023-05-10T02:02:59;22.37;;;11.50;;
17604;SDS011;8921;50.964;6.800;2023-05-10T02:05:26;18.77;;;10.77;;
17604;SDS011;8921;50.964;6.800;2023-05-10T02:07:55;19.17;;;11.00;;
17604;SDS011;8921;50.964;6.800;2023-05-10T02:10:23;18.60;;;9.57;;
17604;SDS011;8921;50.964;6.800;2023-05-10T02:12:51;15.97;;;10.13;;
17604;SDS011;8921;50.964;6.800;2023-05-10T02:15:20;15.93;;;9.93;;
17604;SDS011;8921;50.964;6.800;2023-05-10T02:17:48;15.97;;;10.13;;
17604;SDS011;8921;50.964;6.800;2023-05-10T02:20:16;18.57;;;9.43;;
17604;SDS011;8921;50.964;6.800;2023-05-10T02:22:44;11.80;;;6.97;;
17604;SDS011;8921;50.964;6.800;2023-05-10T02:25:13;13.43;;;7.93;;
17604;SDS011;8921;50.964;6.800;2023-05-10T02:27:41;11.03;;;7.70;;
17604;SDS011;8921;50.964;6.800;2023-05-10T02:30:09;11.23;;;7.07;;
17604;SDS011;8921;50.964;6.800;2023-05-10T02:32:37;10.80;;;6.57;;
17604;SDS011;8921;50.964;6.800;2023-05-10T02:35:06;12.87;;;6.50;;
17604;SDS011;8921;50.964;6.800;2023-05-10T02:37:34;11.57;;;7.00;;
17604;SDS011;8921;50.964;6.800;2023-05-10T02:40:03;10.77;;;6.90;;
17604;SDS011;8921;50.964;6.800;2023-05-10T02:42:32;14.43;;;6.40;;
17604;SDS011;8921;50.964;6.800;2023-05-10T02:45:00;11.63;;;6.00;;
17604;SDS011;8921;50.964;6.800;2023-05-10T02:47:28;11.30;;;6.13;;
17604;SDS011;8921;50.964;6.800;2023-05-10T02:49:56;15.23;;;6.47;;
17604;SDS011;8921;50.964;6.800;2023-05-10T02:52:28;9.90;;;6.30;;
17604;SDS011;8921;50.964;6.800;2023-05-10T02:54:55;12.60;;;6.50;;
17604;SDS011;8921;50.964;6.800;2023-05-10T02:57:27;16.43;;;6.67;;
17604;SDS011;8921;50.964;6.800;2023-05-10T02:59:54;13.17;;;8.30;;
17604;SDS011;8921;50.964;6.800;2023-05-10T03:02:23;13.70;;;7.20;;
17604;SDS011;8921;50.964;6.800;2023-05-10T03:04:51;15.80;;;7.83;;
17604;SDS011;8921;50.964;6.800;2023-05-10T03:07:19;14.30;;;8.00;;
17604;SDS011;8921;50.964;6.800;2023-05-10T03:09:48;17.60;;;9.80;;
17604;SDS011;8921;50.964;6.800;2023-05-10T03:17:41;19.87;;;10.90;;
17604;SDS011;8921;50.964;6.800;2023-05-10T03:20:16;17.23;;;11.20;;
17604;SDS011;8921;50.964;6.800;2023-05-10T03:22:44;20.50;;;10.73;;
17604;SDS011;8921;50.964;6.800;2023-05-10T03:25:10;29.43;;;15.67;;
17604;SDS011;8921;50.964;6.800;2023-05-10T03:27:39;19.30;;;11.43;;
17604;SDS011;8921;50.964;6.800;2023-05-10T03:30:10;20.90;;;13.00;;
17604;SDS011;8921;50.964;6.800;2023-05-10T03:32:38;20.50;;;11.93;;
17604;SDS011;8921;50.964;6.800;2023-05-10T03:35:09;24.60;;;12.20;;
17604;SDS011;8921;50.964;6.800;2023-05-10T03:37:37;19.23;;;11.53;;
17604;SDS011;8921;50.964;6.800;2023-05-10T03:40:05;22.40;;;13.03;;
17604;SDS011;8921;50.964;6.800;2023-05-10T03:42:33;17.60;;;11.80;;
17604;SDS011;8921;50.964;6.800;2023-05-10T03:45:02;20.03;;;11.43;;
17604;SDS011;8921;50.964;6.800;2023-05-10T03:47:30;17.27;;;11.27;;
17604;SDS011;8921;50.964;6.800;2023-05-10T03:49:58;20.40;;;12.10;;
17604;SDS011;8921;50.964;6.800;2023-05-10T03:52:27;17.93;;;11.13;;
17604;SDS011;8921;50.964;6.800;2023-05-10T03:54:55;20.87;;;12.33;;
17604;SDS011;8921;50.964;6.800;2023-05-10T03:57:23;22.13;;;11.80;;
17604;SDS011;8921;50.964;6.800;2023-05-10T03:59:51;19.20;;;12.47;;
17604;SDS011;8921;50.964;6.800;2023-05-10T04:02:20;26.03;;;13.30;;
17604;SDS011;8921;50.964;6.800;2023-05-10T04:04:48;26.67;;;14.53;;
17604;SDS011;8921;50.964;6.800;2023-05-10T04:07:16;25.80;;;13.97;;
17604;SDS011;8921;50.964;6.800;2023-05-10T04:09:45;22.77;;;12.77;;
17604;SDS011;8921;50.964;6.800;2023-05-10T04:12:13;23.33;;;13.37;;
17604;SDS011;8921;50.964;6.800;2023-05-10T04:14:41;24.80;;;15.00;;
17604;SDS011;8921;50.964;6.800;2023-05-10T04:17:09;26.47;;;15.90;;
17604;SDS011;8921;50.964;6.800;2023-05-10T04:19:38;22.73;;;14.73;;
17604;SDS011;8921;50.964;6.800;2023-05-10T04:22:06;25.43;;;14.77;;
17604;SDS011;8921;50.964;6.800;2023-05-10T04:24:34;29.33;;;15.40;;
17604;SDS011;8921;50.964;6.800;2023-05-10T04:27:02;33.27;;;17.20;;
17604;SDS011;8921;50.964;6.800;2023-05-10T04:29:31;27.03;;;16.77;;
17604;SDS011;8921;50.964;6.800;2023-05-10T04:31:59;24.57;;;15.33;;
17604;SDS011;8921;50.964;6.800;2023-05-10T04:34:27;31.73;;;16.80;;
17604;SDS011;8921;50.964;6.800;2023-05-10T04:36:56;30.13;;;18.30;;
17604;SDS011;8921;50.964;6.800;2023-05-10T04:39:24;24.27;;;16.13;;
17604;SDS011;8921;50.964;6.800;2023-05-10T04:41:52;28.67;;;14.90;;
17604;SDS011;8921;50.964;6.800;2023-05-10T04:44:20;24.40;;;15.20;;
17604;SDS011;8921;50.964;6.800;2023-05-10T04:46:49;23.73;;;13.80;;
17604;SDS011;8921;50.964;6.800;2023-05-10T04:49:17;22.60;;;14.20;;
17604;SDS011;8921;50.964;6.800;2023-05-10T04:51:45;23.33;;;13.27;;
17604;SDS011;8921;50.964;6.800;2023-05-10T04:54:13;24.53;;;14.50;;
17604;SDS011;8921;50.964;6.800;2023-05-10T04:56:42;23.60;;;14.17;;
17604;SDS011;8921;50.964;6.800;2023-05-10T04:59:10;22.03;;;13.20;;
17604;SDS011;8921;50.964;6.800;2023-05-10T05:01:39;24.10;;;14.20;;
17604;SDS011;8921;50.964;6.800;2023-05-10T05:04:07;18.00;;;13.00;;
17604;SDS011;8921;50.964;6.800;2023-05-10T05:06:35;21.17;;;12.03;;
17604;SDS011;8921;50.964;6.800;2023-05-10T05:09:03;24.43;;;12.67;;
17604;SDS011;8921;50.964;6.800;2023-05-10T05:11:31;19.80;;;12.87;;
17604;SDS011;8921;50.964;6.800;2023-05-10T05:14:00;18.87;;;12.80;;
17604;SDS011;8921;50.964;6.800;2023-05-10T05:16:30;18.47;;;12.33;;
17604;SDS011;8921;50.964;6.800;2023-05-10T05:18:56;20.63;;;12.53;;
17604;SDS011;8921;50.964;6.800;2023-05-10T05:21:24;19.27;;;11.43;;
17604;SDS011;8921;50.964;6.800;2023-05-10T05:23:53;24.53;;;12.67;;
17604;SDS011;8921;50.964;6.800;2023-05-10T05:26:21;17.60;;;10.07;;
17604;SDS011;8921;50.964;6.800;2023-05-10T05:28:49;20.57;;;12.30;;
17604;SDS011;8921;50.964;6.800;2023-05-10T05:31:18;22.23;;;10.40;;
17604;SDS011;8921;50.964;6.800;2023-05-10T05:33:46;19.77;;;11.60;;
17604;SDS011;8921;50.964;6.800;2023-05-10T05:36:14;19.33;;;12.23;;
17604;SDS011;8921;50.964;6.800;2023-05-10T05:38:43;19.40;;;12.53;;
17604;SDS011;8921;50.964;6.800;2023-05-10T05:41:11;22.40;;;11.70;;
17604;SDS011;8921;50.964;6.800;2023-05-10T05:43:39;21.77;;;11.67;;
17604;SDS011;8921;50.964;6.800;2023-05-10T05:46:07;22.57;;;12.30;;
17604;SDS011;8921;50.964;6.800;2023-05-10T05:48:36;18.47;;;10.93;;
17604;SDS011;8921;50.964;6.800;2023-05-10T05:51:04;22.37;;;11.63;;
17604;SDS011;8921;50.964;6.800;2023-05-10T05:53:32;20.60;;;12.13;;
17604;SDS011;8921;50.964;6.800;2023-05-10T05:56:01;18.60;;;10.70;;
17604;SDS011;8921;50.964;6.800;2023-05-10T05:58:29;21.37;;;12.33;;
17604;SDS011;8921;50.964;6.800;2023-05-10T06:00:57;18.30;;;11.07;;
17604;SDS011;8921;50.964;6.800;2023-05-10T06:03:25;18.77;;;10.77;;
17604;SDS011;8921;50.964;6.800;2023-05-10T06:05:54;20.97;;;11.00;;
17604;SDS011;8921;50.964;6.800;2023-05-10T06:08:22;19.30;;;11.77;;
17604;SDS011;8921;50.964;6.800;2023-05-10T06:10:50;21.60;;;11.93;;
17604;SDS011;8921;50.964;6.800;2023-05-10T06:13:19;20.23;;;10.27;;
17604;SDS011;8921;50.964;6.800;2023-05-10T06:15:47;18.23;;;11.20;;
17604;SDS011;8921;50.964;6.800;2023-05-10T06:18:15;19.07;;;11.13;;
17604;SDS011;8921;50.964;6.800;2023-05-10T06:20:43;21.77;;;12.20;;
17604;SDS011;8921;50.964;6.800;2023-05-10T06:23:12;23.50;;;11.70;;
17604;SDS011;8921;50.964;6.800;2023-05-10T06:25:40;19.83;;;11.90;;
17604;SDS011;8921;50.964;6.800;2023-05-10T06:28:08;23.63;;;12.00;;
17604;SDS011;8921;50.964;6.800;2023-05-10T06:30:37;21.60;;;12.80;;
17604;SDS011;8921;50.964;6.800;2023-05-10T06:33:05;22.43;;;11.93;;
17604;SDS011;8921;50.964;6.800;2023-05-10T06:35:33;22.90;;;12.20;;
17604;SDS011;8921;50.964;6.800;2023-05-10T06:38:02;26.60;;;12.20;;
17604;SDS011;8921;50.964;6.800;2023-05-10T06:40:30;23.23;;;13.60;;
17604;SDS011;8921;50.964;6.800;2023-05-10T06:42:58;26.73;;;14.07;;
17604;SDS011;8921;50.964;6.800;2023-05-10T06:45:26;24.70;;;13.63;;
17604;SDS011;8921;50.964;6.800;2023-05-10T06:47:55;26.00;;;13.23;;
17604;SDS011;8921;50.964;6.800;2023-05-10T06:50:23;21.40;;;12.53;;
17604;SDS011;8921;50.964;6.800;2023-05-10T06:52:51;21.67;;;12.73;;
17604;SDS011;8921;50.964;6.800;2023-05-10T06:55:20;32.03;;;15.10;;
17604;SDS011;8921;50.964;6.800;2023-05-10T06:57:48;21.87;;;12.57;;
17604;SDS011;8921;50.964;6.800;2023-05-10T07:00:17;21.63;;;10.90;;
17604;SDS011;8921;50.964;6.800;2023-05-10T07:02:45;23.60;;;13.17;;
17604;SDS011;8921;50.964;6.800;2023-05-10T07:05:13;20.10;;;12.40;;
17604;SDS011;8921;50.964;6.800;2023-05-10T07:07:41;24.47;;;12.70;;
17604;SDS011;8921;50.964;6.800;2023-05-10T07:10:10;23.73;;;11.97;;
17604;SDS011;8921;50.964;6.800;2023-05-10T07:12:38;18.73;;;12.33;;
17604;SDS011;8921;50.964;6.800;2023-05-10T07:15:07;21.13;;;11.30;;
17604;SDS011;8921;50.964;6.800;2023-05-10T07:17:35;22.37;;;12.00;;
17604;SDS011;8921;50.964;6.800;2023-05-10T07:20:03;19.97;;;12.30;;
17604;SDS011;8921;50.964;6.800;2023-05-10T07:22:32;20.40;;;12.40;;
17604;SDS011;8921;50.964;6.800;2023-05-10T07:25:00;19.27;;;11.60;;
17604;SDS011;8921;50.964;6.800;2023-05-10T07:27:28;22.60;;;12.50;;
17604;SDS011;8921;50.964;6.800;2023-05-10T07:29:57;15.27;;;10.43;;
17604;SDS011;8921;50.964;6.800;2023-05-10T07:32:25;20.17;;;11.27;;
17604;SDS011;8921;50.964;6.800;2023-05-10T07:34:54;21.43;;;12.53;;
17604;SDS011;8921;50.964;6.800;2023-05-10T07:37:22;19.50;;;10.57;;
17604;SDS011;8921;50.964;6.800;2023-05-10T07:39:50;24.87;;;11.20;;
17604;SDS011;8921;50.964;6.800;2023-05-10T07:42:18;17.57;;;10.47;;
17604;SDS011;8921;50.964;6.800;2023-05-10T07:44:47;20.40;;;11.00;;
17604;SDS011;8921;50.964;6.800;2023-05-10T07:47:15;16.43;;;9.53;;
17604;SDS011;8921;50.964;6.800;2023-05-10T07:49:43;18.40;;;10.30;;
17604;SDS011;8921;50.964;6.800;2023-05-10T07:52:11;16.90;;;10.00;;
17604;SDS011;8921;50.964;6.800;2023-05-10T07:54:40;18.97;;;10.37;;
17604;SDS011;8921;50.964;6.800;2023-05-10T07:57:08;18.07;;;10.20;;
17604;SDS011;8921;50.964;6.800;2023-05-10T07:59:36;15.97;;;9.03;;
17604;SDS011;8921;50.964;6.800;2023-05-10T08:02:05;19.50;;;11.20;;
17604;SDS011;8921;50.964;6.800;2023-05-10T08:04:33;17.50;;;12.27;;
17604;SDS011;8921;50.964;6.800;2023-05-10T08:07:01;18.77;;;10.80;;
17604;SDS011;8921;50.964;6.800;2023-05-10T08:09:29;15.50;;;9.70;;
17604;SDS011;8921;50.964;6.800;2023-05-10T08:11:58;14.27;;;9.97;;
17604;SDS011;8921;50.964;6.800;2023-05-10T08:14:27;15.13;;;9.40;;
17604;SDS011;8921;50.964;6.800;2023-05-10T08:16:54;13.70;;;8.47;;
17604;SDS011;8921;50.964;6.800;2023-05-10T08:19:22;14.83;;;8.70;;
17604;SDS011;8921;50.964;6.800;2023-05-10T08:21:51;12.60;;;7.97;;
17604;SDS011;8921;50.964;6.800;2023-05-10T08:24:19;12.70;;;8.20;;
17604;SDS011;8921;50.964;6.800;2023-05-10T08:26:47;18.30;;;7.90;;
17604;SDS011;8921;50.964;6.800;2023-05-10T08:29:15;14.47;;;8.33;;
17604;SDS011;8921;50.964;6.800;2023-05-10T08:31:44;14.80;;;9.10;;
17604;SDS011;8921;50.964;6.800;2023-05-10T08:34:12;18.33;;;10.30;;
17604;SDS011;8921;50.964;6.800;2023-05-10T08:36:40;16.47;;;9.20;;
17604;SDS011;8921;50.964;6.800;2023-05-10T08:39:09;16.80;;;10.10;;
17604;SDS011;8921;50.964;6.800;2023-05-10T08:41:37;17.30;;;11.20;;
17604;SDS011;8921;50.964;6.800;2023-05-10T08:44:05;17.63;;;10.50;;
17604;SDS011;8921;50.964;6.800;2023-05-10T08:46:34;20.53;;;10.97;;
17604;SDS011;8921;50.964;6.800;2023-05-10T08:49:02;18.53;;;10.23;;
17604;SDS011;8921;50.964;6.800;2023-05-10T08:51:31;18.33;;;10.20;;
17604;SDS011;8921;50.964;6.800;2023-05-10T08:53:58;15.90;;;9.50;;
17604;SDS011;8921;50.964;6.800;2023-05-10T08:56:27;18.50;;;11.20;;
17604;SDS011;8921;50.964;6.800;2023-05-10T08:58:55;15.23;;;9.60;;
17604;SDS011;8921;50.964;6.800;2023-05-10T09:01:24;14.93;;;10.00;;
17604;SDS011;8921;50.964;6.800;2023-05-10T09:03:52;16.53;;;9.20;;
17604;SDS011;8921;50.964;6.800;2023-05-10T09:06:20;18.57;;;9.87;;
17604;SDS011;8921;50.964;6.800;2023-05-10T09:08:48;16.30;;;10.43;;
17604;SDS011;8921;50.964;6.800;2023-05-10T09:11:17;19.40;;;11.07;;
17604;SDS011;8921;50.964;6.800;2023-05-10T09:13:45;24.10;;;12.43;;
17604;SDS011;8921;50.964;6.800;2023-05-10T09:16:13;19.70;;;11.40;;
17604;SDS011;8921;50.964;6.800;2023-05-10T09:18:41;21.13;;;12.00;;
17604;SDS011;8921;50.964;6.800;2023-05-10T09:21:10;17.03;;;10.53;;
17604;SDS011;8921;50.964;6.800;2023-05-10T09:23:38;16.50;;;10.57;;
17604;SDS011;8921;50.964;6.800;2023-05-10T09:26:06;17.13;;;10.57;;
17604;SDS011;8921;50.964;6.800;2023-05-10T09:28:49;14.83;;;9.60;;
17604;SDS011;8921;50.964;6.800;2023-05-10T09:31:03;18.07;;;11.40;;
17604;SDS011;8921;50.964;6.800;2023-05-10T09:33:40;15.40;;;9.90;;
17604;SDS011;8921;50.964;6.800;2023-05-10T09:36:06;20.27;;;10.47;;
17604;SDS011;8921;50.964;6.800;2023-05-10T09:38:27;20.03;;;11.00;;
17604;SDS011;8921;50.964;6.800;2023-05-10T09:40:56;19.73;;;10.00;;
17604;SDS011;8921;50.964;6.800;2023-05-10T09:43:24;20.63;;;11.37;;
17604;SDS011;8921;50.964;6.800;2023-05-10T09:45:52;19.50;;;10.50;;
17604;SDS011;8921;50.964;6.800;2023-05-10T09:48:23;14.80;;;9.23;;
17604;SDS011;8921;50.964;6.800;2023-05-10T09:50:55;18.33;;;9.70;;
17604;SDS011;8921;50.964;6.800;2023-05-10T09:53:17;18.30;;;10.23;;
17604;SDS011;8921;50.964;6.800;2023-05-10T09:55:46;17.90;;;10.50;;
17604;SDS011;8921;50.964;6.800;2023-05-10T09:58:14;17.73;;;9.07;;
17604;SDS011;8921;50.964;6.800;2023-05-10T10:00:43;15.40;;;8.07;;
17604;SDS011;8921;50.964;6.800;2023-05-10T10:03:14;19.00;;;9.40;;
17604;SDS011;8921;50.964;6.800;2023-05-10T10:05:42;14.17;;;7.77;;
17604;SDS011;8921;50.964;6.800;2023-05-10T10:08:10;18.70;;;8.77;;
17604;SDS011;8921;50.964;6.800;2023-05-10T10:10:38;15.60;;;7.90;;
17604;SDS011;8921;50.964;6.800;2023-05-10T10:13:09;13.80;;;8.00;;
17604;SDS011;8921;50.964;6.800;2023-05-10T10:15:37;17.73;;;8.83;;
17604;SDS011;8921;50.964;6.800;2023-05-10T10:18:05;15.10;;;8.13;;
17604;SDS011;8921;50.964;6.800;2023-05-10T10:20:35;14.90;;;7.87;;
17604;SDS011;8921;50.964;6.800;2023-05-10T10:23:02;14.13;;;7.63;;
17604;SDS011;8921;50.964;6.800;2023-05-10T10:25:30;16.93;;;8.13;;
17604;SDS011;8921;50.964;6.800;2023-05-10T10:28:05;16.03;;;8.53;;
17604;SDS011;8921;50.964;6.800;2023-05-10T10:33:27;13.20;;;7.17;;
17604;SDS011;8921;50.964;6.800;2023-05-10T10:35:55;13.27;;;6.03;;
17604;SDS011;8921;50.964;6.800;2023-05-10T10:38:23;14.83;;;7.10;;
17604;SDS011;8921;50.964;6.800;2023-05-10T10:41:10;13.03;;;6.40;;
17604;SDS011;8921;50.964;6.800;2023-05-10T10:43:38;16.80;;;8.23;;
17604;SDS011;8921;50.964;6.800;2023-05-10T10:48:47;12.50;;;6.77;;
17604;SDS011;8921;50.964;6.800;2023-05-10T10:51:15;11.07;;;6.40;;
17604;SDS011;8921;50.964;6.800;2023-05-10T10:53:43;10.70;;;5.87;;
17604;SDS011;8921;50.964;6.800;2023-05-10T10:56:12;10.67;;;5.20;;
17604;SDS011;8921;50.964;6.800;2023-05-10T10:58:40;9.37;;;5.33;;
17604;SDS011;8921;50.964;6.800;2023-05-10T11:03:39;8.13;;;5.13;;
17604;SDS011;8921;50.964;6.800;2023-05-10T11:06:07;9.10;;;5.40;;
17604;SDS011;8921;50.964;6.800;2023-05-10T11:08:41;9.53;;;5.17;;
17604;SDS011;8921;50.964;6.800;2023-05-10T11:11:10;10.07;;;5.37;;
17604;SDS011;8921;50.964;6.800;2023-05-10T11:13:39;9.33;;;5.30;;
17604;SDS011;8921;50.964;6.800;2023-05-10T11:16:10;7.90;;;4.50;;
17604;SDS011;8921;50.964;6.800;2023-05-10T11:18:54;7.43;;;4.07;;
17604;SDS011;8921;50.964;6.800;2023-05-10T11:21:24;7.10;;;4.03;;
17604;SDS011;8921;50.964;6.800;2023-05-10T11:23:53;8.63;;;3.63;;
17604;SDS011;8921;50.964;6.800;2023-05-10T11:26:24;5.90;;;3.13;;
17604;SDS011;8921;50.964;6.800;2023-05-10T11:28:53;7.00;;;3.33;;
17604;SDS011;8921;50.964;6.800;2023-05-10T11:31:23;8.17;;;2.70;;
17604;SDS011;8921;50.964;6.800;2023-05-10T11:33:52;5.30;;;2.67;;
17604;SDS011;8921;50.964;6.800;2023-05-10T11:36:26;5.90;;;2.60;;
17604;SDS011;8921;50.964;6.800;2023-05-10T11:38:54;6.23;;;2.63;;
17604;SDS011;8921;50.964;6.800;2023-05-10T11:41:22;4.40;;;2.40;;
17604;SDS011;8921;50.964;6.800;2023-05-10T11:43:51;4.70;;;2.47;;
17604;SDS011;8921;50.964;6.800;2023-05-10T11:46:20;7.20;;;3.27;;
17604;SDS011;8921;50.964;6.800;2023-05-10T11:48:49;7.53;;;3.50;;
17604;SDS011;8921;50.964;6.800;2023-05-10T11:51:15;4.80;;;2.40;;
17604;SDS011;8921;50.964;6.800;2023-05-10T11:53:43;4.70;;;2.40;;
17604;SDS011;8921;50.964;6.800;2023-05-10T11:56:12;8.20;;;2.87;;
17604;SDS011;8921;50.964;6.800;2023-05-10T11:58:40;6.63;;;3.20;;
17604;SDS011;8921;50.964;6.800;2023-05-10T12:01:08;5.73;;;2.57;;
17604;SDS011;8921;50.964;6.800;2023-05-10T12:03:36;5.00;;;3.07;;
17604;SDS011;8921;50.964;6.800;2023-05-10T12:06:05;5.20;;;2.70;;
17604;SDS011;8921;50.964;6.800;2023-05-10T12:08:33;7.10;;;3.10;;
17604;SDS011;8921;50.964;6.800;2023-05-10T12:11:08;8.13;;;4.07;;
17604;SDS011;8921;50.964;6.800;2023-05-10T12:13:38;16.60;;;10.60;;
17604;SDS011;8921;50.964;6.800;2023-05-10T12:16:13;7.27;;;3.27;;
17604;SDS011;8921;50.964;6.800;2023-05-10T12:18:41;5.60;;;2.90;;
17604;SDS011;8921;50.964;6.800;2023-05-10T12:21:10;5.47;;;3.10;;
17604;SDS011;8921;50.964;6.800;2023-05-10T12:23:40;5.50;;;3.07;;
17604;SDS011;8921;50.964;6.800;2023-05-10T12:26:06;5.50;;;2.63;;
17604;SDS011;8921;50.964;6.800;2023-05-10T12:28:34;6.10;;;2.70;;
17604;SDS011;8921;50.964;6.800;2023-05-10T12:31:02;6.63;;;3.20;;
17604;SDS011;8921;50.964;6.800;2023-05-10T12:33:37;5.80;;;2.97;;
17604;SDS011;8921;50.964;6.800;2023-05-10T12:36:08;6.03;;;2.43;;
17604;SDS011;8921;50.964;6.800;2023-05-10T12:38:39;5.17;;;2.60;;
17604;SDS011;8921;50.964;6.800;2023-05-10T12:41:08;7.83;;;3.80;;
17604;SDS011;8921;50.964;6.800;2023-05-10T12:43:35;6.17;;;2.83;;
17604;SDS011;8921;50.964;6.800;2023-05-10T12:46:07;5.47;;;2.40;;
17604;SDS011;8921;50.964;6.800;2023-05-10T12:48:35;5.40;;;2.17;;
17604;SDS011;8921;50.964;6.800;2023-05-10T12:51:03;5.33;;;1.80;;
17604;SDS011;8921;50.964;6.800;2023-05-10T12:53:31;4.70;;;2.57;;
17604;SDS011;8921;50.964;6.800;2023-05-10T12:55:59;4.60;;;2.13;;
17604;SDS011;8921;50.964;6.800;2023-05-10T12:58:28;4.37;;;2.10;;
17604;SDS011;8921;50.964;6.800;2023-05-10T13:00:57;11.80;;;6.10;;
17604;SDS011;8921;50.964;6.800;2023-05-10T13:03:24;5.67;;;2.50;;
17604;SDS011;8921;50.964;6.800;2023-05-10T13:05:52;7.43;;;1.83;;
17604;SDS011;8921;50.964;6.800;2023-05-10T13:08:21;4.33;;;1.77;;
17604;SDS011;8921;50.964;6.800;2023-05-10T13:10:49;4.03;;;1.60;;
17604;SDS011;8921;50.964;6.800;2023-05-10T13:13:17;6.03;;;2.30;;
17604;SDS011;8921;50.964;6.800;2023-05-10T13:15:45;8.70;;;1.77;;
17604;SDS011;8921;50.964;6.800;2023-05-10T13:18:14;4.50;;;2.10;;
17604;SDS011;8921;50.964;6.800;2023-05-10T13:20:42;4.50;;;2.10;;
17604;SDS011;8921;50.964;6.800;2023-05-10T13:23:10;3.90;;;1.63;;
17604;SDS011;8921;50.964;6.800;2023-05-10T13:25:39;5.40;;;1.90;;
17604;SDS011;8921;50.964;6.800;2023-05-10T13:28:07;4.50;;;1.67;;
17604;SDS011;8921;50.964;6.800;2023-05-10T13:30:35;3.80;;;1.73;;
17604;SDS011;8921;50.964;6.800;2023-05-10T13:33:03;3.70;;;1.40;;
17604;SDS011;8921;50.964;6.800;2023-05-10T13:35:32;6.00;;;1.60;;
17604;SDS011;8921;50.964;6.800;2023-05-10T13:38:00;13.23;;;2.13;;
17604;SDS011;8921;50.964;6.800;2023-05-10T13:40:29;3.20;;;1.20;;
17604;SDS011;8921;50.964;6.800;2023-05-10T13:42:57;3.60;;;1.37;;
17604;SDS011;8921;50.964;6.800;2023-05-10T13:45:25;5.13;;;1.83;;
17604;SDS011;8921;50.964;6.800;2023-05-10T13:47:54;3.60;;;1.60;;
17604;SDS011;8921;50.964;6.800;2023-05-10T13:50:22;4.70;;;2.17;;
17604;SDS011;8921;50.964;6.800;2023-05-10T13:52:50;3.57;;;1.57;;
17604;SDS011;8921;50.964;6.800;2023-05-10T13:55:18;3.77;;;1.50;;
17604;SDS011;8921;50.964;6.800;2023-05-10T13:57:47;6.07;;;2.00;;
17604;SDS011;8921;50.964;6.800;2023-05-10T14:00:15;6.90;;;1.70;;
17604;SDS011;8921;50.964;6.800;2023-05-10T14:02:44;4.50;;;1.70;;
17604;SDS011;8921;50.964;6.800;2023-05-10T14:05:12;6.40;;;1.80;;
17604;SDS011;8921;50.964;6.800;2023-05-10T14:07:40;3.50;;;1.20;;
17604;SDS011;8921;50.964;6.800;2023-05-10T14:10:09;6.37;;;1.73;;
17604;SDS011;8921;50.964;6.800;2023-05-10T14:12:37;3.63;;;1.67;;
17604;SDS011;8921;50.964;6.800;2023-05-10T14:15:05;4.73;;;1.40;;
17604;SDS011;8921;50.964;6.800;2023-05-10T14:17:34;12.23;;;2.20;;
17604;SDS011;8921;50.964;6.800;2023-05-10T14:20:02;4.10;;;1.60;;
17604;SDS011;8921;50.964;6.800;2023-05-10T14:22:30;3.70;;;1.53;;
17604;SDS011;8921;50.964;6.800;2023-05-10T14:24:59;4.60;;;1.90;;
17604;SDS011;8921;50.964;6.800;2023-05-10T14:27:27;5.10;;;2.40;;
17604;SDS011;8921;50.964;6.800;2023-05-10T14:29:55;3.90;;;1.80;;
17604;SDS011;8921;50.964;6.800;2023-05-10T14:32:23;5.50;;;2.40;;
17604;SDS011;8921;50.964;6.800;2023-05-10T14:34:52;5.20;;;2.80;;
17604;SDS011;8921;50.964;6.800;2023-05-10T14:37:20;4.30;;;2.10;;
17604;SDS011;8921;50.964;6.800;2023-05-10T14:39:48;5.70;;;2.10;;
17604;SDS011;8921;50.964;6.800;2023-05-10T14:42:16;4.50;;;2.13;;
17604;SDS011;8921;50.964;6.800;2023-05-10T14:44:45;5.90;;;2.40;;
17604;SDS011;8921;50.964;6.800;2023-05-10T14:47:13;5.63;;;2.40;;
17604;SDS011;8921;50.964;6.800;2023-05-10T14:49:41;6.60;;;2.63;;
17604;SDS011;8921;50.964;6.800;2023-05-10T14:52:09;5.30;;;2.17;;
17604;SDS011;8921;50.964;6.800;2023-05-10T14:54:38;4.77;;;1.73;;
17604;SDS011;8921;50.964;6.800;2023-05-10T14:57:06;4.00;;;1.77;;
17604;SDS011;8921;50.964;6.800;2023-05-10T14:59:34;5.13;;;1.83;;
17604;SDS011;8921;50.964;6.800;2023-05-10T15:02:03;4.63;;;1.70;;
17604;SDS011;8921;50.964;6.800;2023-05-10T15:04:31;6.17;;;2.23;;
17604;SDS011;8921;50.964;6.800;2023-05-10T15:06:59;4.73;;;2.27;;
17604;SDS011;8921;50.964;6.800;2023-05-10T15:09:28;3.50;;;1.40;;
17604;SDS011;8921;50.964;6.800;2023-05-10T15:11:56;6.53;;;2.10;;
17604;SDS011;8921;50.964;6.800;2023-05-10T15:14:24;6.13;;;2.27;;